createdAt,value
2023-03-27T00:00:16.721Z,11.30
2023-03-27T00:02:46.897Z,11.30
2023-03-27T00:05:16.462Z,11.20
2023-03-27T00:07:48.490Z,11.20
2023-03-27T00:10:17.857Z,11.10
2023-03-27T00:12:46.187Z,11.10
2023-03-27T00:15:17.376Z,11.00
2023-03-27T00:17:47.731Z,11.10
2023-03-27T00:20:17.676Z,11.00
2023-03-27T00:22:48.187Z,11.00
2023-03-27T00:25:17.138Z,11.10
2023-03-27T00:27:46.089Z,11.30
2023-03-27T00:30:15.690Z,11.00
2023-03-27T00:32:44.686Z,11.10
2023-03-27T00:35:13.495Z,11.30
2023-03-27T00:37:42.662Z,11.10
2023-03-27T00:40:17.697Z,11.10
2023-03-27T00:42:47.217Z,11.10
2023-03-27T00:45:20.217Z,11.30
2023-03-27T00:47:54.211Z,11.10
2023-03-27T00:50:27.849Z,11.10
2023-03-27T00:53:01.070Z,11.10
2023-03-27T00:55:35.164Z,11.10
2023-03-27T00:58:08.501Z,11.30
2023-03-27T01:00:37.206Z,11.20
2023-03-27T01:03:08.759Z,11.20
2023-03-27T01:05:38.425Z,11.10
2023-03-27T01:08:07.583Z,11.10
2023-03-27T01:10:52.224Z,11.10
2023-03-27T01:13:40.051Z,11.10
2023-03-27T01:16:15.328Z,11.00
2023-03-27T01:19:00.060Z,11.00
2023-03-27T01:22:21.984Z,10.90
2023-03-27T01:25:22.472Z,10.90
2023-03-27T01:28:30.086Z,10.90
2023-03-27T01:31:10.146Z,10.80
2023-03-27T01:34:01.924Z,10.80
2023-03-27T01:37:06.259Z,10.80
2023-03-27T01:39:46.386Z,10.80
2023-03-27T01:42:22.801Z,10.80
2023-03-27T01:44:56.005Z,10.80
2023-03-27T01:47:41.913Z,10.80
2023-03-27T01:50:21.137Z,10.80
2023-03-27T01:52:55.703Z,10.90
2023-03-27T01:55:31.526Z,10.70
2023-03-27T01:58:05.036Z,10.70
2023-03-27T02:00:50.978Z,10.60
2023-03-27T02:03:27.935Z,10.60
2023-03-27T02:06:01.765Z,10.50
2023-03-27T02:08:37.711Z,10.50
2023-03-27T02:11:41.333Z,10.40
2023-03-27T02:14:14.905Z,10.40
2023-03-27T02:16:50.686Z,10.50
2023-03-27T02:19:24.878Z,10.40
2023-03-27T02:21:53.466Z,10.40
2023-03-27T02:24:24.385Z,10.40
2023-03-27T02:27:01.924Z,10.50
2023-03-27T02:29:46.209Z,10.30
2023-03-27T02:32:34.806Z,10.30
2023-03-27T02:35:22.852Z,10.20
2023-03-27T02:38:01.253Z,10.20
2023-03-27T02:40:48.667Z,10.40
2023-03-27T02:43:42.333Z,10.10
2023-03-27T02:46:22.145Z,10.10
2023-03-27T02:48:57.051Z,10.00
2023-03-27T02:51:29.718Z,10.20
2023-03-27T02:54:02.380Z,10.10
2023-03-27T02:56:39.533Z,9.90
2023-03-27T02:59:14.147Z,9.90
2023-03-27T03:01:45.521Z,9.80
2023-03-27T03:04:25.256Z,9.80
2023-03-27T03:07:16.243Z,9.70
2023-03-27T03:09:46.809Z,9.70
2023-03-27T03:12:15.135Z,9.80
2023-03-27T03:14:48.688Z,9.60
2023-03-27T03:17:17.879Z,9.50
2023-03-27T03:19:46.926Z,9.50
2023-03-27T03:22:15.584Z,9.40
2023-03-27T03:24:44.233Z,9.40
2023-03-27T03:27:20.926Z,9.40
2023-03-27T03:30:01.110Z,9.40
2023-03-27T03:32:31.250Z,9.30
2023-03-27T03:35:01.644Z,9.30
2023-03-27T03:37:38.849Z,9.30
2023-03-27T03:40:11.967Z,9.40
2023-03-27T03:42:47.397Z,9.20
2023-03-27T03:45:19.205Z,9.40
2023-03-27T03:47:48.087Z,9.40
2023-03-27T03:50:17.873Z,9.30
2023-03-27T03:52:47.188Z,9.20
2023-03-27T03:55:16.284Z,9.20
2023-03-27T03:57:48.486Z,9.20
2023-03-27T04:00:28.166Z,9.20
2023-03-27T04:02:58.724Z,9.10
2023-03-27T04:05:27.323Z,9.20
2023-03-27T04:08:00.151Z,9.10
2023-03-27T04:10:41.338Z,9.10
2023-03-27T04:13:22.470Z,9.10
2023-03-27T04:16:01.760Z,9.10
2023-03-27T04:18:39.396Z,9.00
2023-03-27T04:21:14.741Z,9.10
2023-03-27T04:23:45.245Z,9.00
2023-03-27T04:26:16.931Z,9.10
2023-03-27T04:29:10.439Z,9.00
2023-03-27T04:32:03.364Z,9.10
2023-03-27T04:34:41.568Z,9.00
2023-03-27T04:37:18.482Z,9.00
2023-03-27T04:40:13.314Z,8.90
2023-03-27T04:42:44.120Z,8.90
2023-03-27T04:45:17.893Z,8.90
2023-03-27T04:47:50.853Z,8.90
2023-03-27T04:50:20.997Z,8.90
2023-03-27T04:52:50.624Z,8.90
2023-03-27T04:55:23.042Z,8.90
2023-03-27T04:57:51.938Z,9.00
2023-03-27T05:00:23.810Z,8.80
2023-03-27T05:03:13.927Z,8.80
2023-03-27T05:06:11.938Z,8.80
2023-03-27T05:08:42.116Z,8.90
2023-03-27T05:11:20.346Z,8.80
2023-03-27T05:13:49.045Z,8.80
2023-03-27T05:16:22.173Z,8.70
2023-03-27T05:18:56.561Z,8.70
2023-03-27T05:21:25.124Z,8.80
2023-03-27T05:23:53.578Z,8.70
2023-03-27T05:26:25.928Z,8.80
2023-03-27T05:28:59.777Z,8.70
2023-03-27T05:31:30.115Z,8.70
2023-03-27T05:34:21.968Z,8.70
2023-03-27T05:36:55.045Z,8.70
2023-03-27T05:39:25.606Z,8.60
2023-03-27T05:41:54.248Z,8.70
2023-03-27T05:44:25.684Z,8.60
2023-03-27T05:46:54.437Z,8.60
2023-03-27T05:49:34.012Z,8.50
2023-03-27T05:52:10.646Z,8.60
2023-03-27T05:54:39.245Z,8.60
2023-03-27T05:57:12.000Z,8.50
2023-03-27T05:59:42.389Z,8.50
2023-03-27T06:02:21.461Z,8.60
2023-03-27T06:05:01.431Z,8.50
2023-03-27T06:07:36.033Z,8.50
2023-03-27T06:10:13.324Z,8.60
2023-03-27T06:12:48.877Z,8.40
2023-03-27T06:15:26.449Z,8.40
2023-03-27T06:18:09.641Z,8.50
2023-03-27T06:20:40.665Z,8.40
2023-03-27T06:23:09.555Z,8.40
2023-03-27T06:25:40.712Z,8.40
2023-03-27T06:28:13.404Z,8.40
2023-03-27T06:30:46.882Z,8.50
2023-03-27T06:33:36.224Z,8.50
2023-03-27T06:36:10.925Z,8.30
2023-03-27T06:38:42.565Z,8.40
2023-03-27T06:41:11.684Z,8.40
2023-03-27T06:44:03.431Z,8.40
2023-03-27T06:47:00.879Z,8.40
2023-03-27T06:49:34.204Z,8.40
2023-03-27T06:52:12.396Z,8.40
2023-03-27T06:54:41.181Z,8.40
2023-03-27T06:57:09.874Z,8.40
2023-03-27T06:59:50.630Z,8.50
2023-03-27T07:02:24.417Z,8.20
2023-03-27T07:05:16.989Z,8.30
2023-03-27T07:07:49.057Z,8.30
2023-03-27T07:10:19.234Z,8.30
2023-03-27T07:12:48.716Z,8.30
2023-03-27T07:15:20.022Z,8.40
2023-03-27T07:17:55.473Z,8.30
2023-03-27T07:20:24.930Z,8.50
2023-03-27T07:22:56.589Z,8.40
2023-03-27T07:25:50.197Z,8.40
2023-03-27T07:28:32.922Z,8.50
2023-03-27T07:31:29.236Z,8.50
2023-03-27T07:34:01.006Z,8.30
2023-03-27T07:36:49.889Z,8.30
2023-03-27T07:39:19.686Z,8.30
2023-03-27T07:41:48.136Z,8.40
2023-03-27T07:44:24.970Z,8.30
2023-03-27T07:47:06.943Z,8.30
2023-03-27T07:49:40.137Z,8.30
2023-03-27T07:52:15.331Z,8.30
2023-03-27T07:54:56.874Z,8.40
2023-03-27T07:57:31.663Z,8.40
2023-03-27T08:00:11.854Z,8.40
2023-03-27T08:02:52.347Z,8.30
2023-03-27T08:05:21.345Z,8.30
2023-03-27T08:08:05.948Z,8.30
2023-03-27T08:10:50.439Z,8.20
2023-03-27T08:13:19.498Z,8.20
2023-03-27T08:15:48.014Z,8.30
2023-03-27T08:18:25.712Z,8.30
2023-03-27T08:20:57.343Z,8.30
2023-03-27T08:23:28.231Z,8.30
2023-03-27T08:26:20.927Z,8.40
2023-03-27T08:28:56.977Z,8.40
2023-03-27T08:31:30.917Z,8.40
2023-03-27T08:34:05.318Z,8.40
2023-03-27T08:37:00.032Z,8.40
2023-03-27T08:39:39.773Z,8.40
2023-03-27T08:42:19.078Z,8.50
2023-03-27T08:44:54.950Z,8.50
2023-03-27T08:47:42.131Z,8.50
2023-03-27T08:50:33.922Z,8.50
2023-03-27T08:53:23.158Z,8.70
2023-03-27T08:55:51.538Z,8.60
2023-03-27T08:58:28.476Z,8.70
2023-03-27T09:01:20.559Z,8.80
2023-03-27T09:03:57.471Z,8.70
2023-03-27T09:06:29.393Z,8.80
2023-03-27T09:09:12.295Z,8.80
2023-03-27T09:11:55.979Z,8.90
2023-03-27T09:14:37.485Z,9.00
2023-03-27T09:17:15.866Z,9.00
2023-03-27T09:19:53.378Z,9.00
2023-03-27T09:22:31.306Z,9.00
2023-03-27T09:25:23.290Z,9.10
2023-03-27T09:28:21.030Z,9.10
2023-03-27T09:30:59.995Z,9.20
2023-03-27T09:33:41.441Z,9.10
2023-03-27T09:36:11.015Z,9.30
2023-03-27T09:38:50.592Z,9.10
2023-03-27T09:41:28.594Z,9.30
2023-03-27T09:44:03.515Z,9.20
2023-03-27T09:46:37.834Z,9.30
2023-03-27T09:49:14.614Z,9.30
2023-03-27T09:51:51.358Z,9.20
2023-03-27T09:54:54.227Z,9.20
2023-03-27T09:57:38.631Z,9.20
2023-03-27T10:00:28.292Z,9.30
2023-03-27T10:03:05.880Z,9.30
2023-03-27T10:05:38.917Z,9.40
2023-03-27T10:08:32.712Z,9.50
2023-03-27T10:11:18.389Z,9.50
2023-03-27T10:13:54.872Z,9.60
2023-03-27T10:16:27.947Z,9.50
2023-03-27T10:19:02.801Z,9.50
2023-03-27T10:21:42.628Z,9.70
2023-03-27T10:24:22.560Z,9.60
2023-03-27T10:27:24.861Z,9.70
2023-03-27T10:30:31.314Z,9.70
2023-03-27T10:33:30.899Z,9.80
2023-03-27T10:36:14.627Z,9.80
2023-03-27T10:38:44.153Z,9.90
2023-03-27T10:41:37.632Z,9.90
2023-03-27T10:44:18.000Z,9.90
2023-03-27T10:46:52.897Z,10.00
2023-03-27T10:49:30.871Z,10.10
2023-03-27T10:52:15.928Z,10.00
2023-03-27T10:55:35.114Z,10.00
2023-03-27T10:58:09.342Z,10.10
2023-03-27T11:00:43.468Z,10.10
2023-03-27T11:03:26.676Z,10.00
2023-03-27T11:06:06.661Z,10.10
2023-03-27T11:08:54.039Z,10.10
2023-03-27T11:11:30.815Z,10.10
2023-03-27T11:14:06.248Z,10.30
2023-03-27T11:16:41.278Z,10.20
2023-03-27T11:19:43.689Z,10.30
2023-03-27T11:22:55.895Z,10.20
2023-03-27T11:25:46.579Z,10.20
2023-03-27T11:28:27.005Z,10.10
2023-03-27T11:31:12.001Z,10.20
2023-03-27T11:33:49.097Z,10.00
2023-03-27T11:36:37.625Z,9.90
2023-03-27T11:39:35.924Z,9.80
2023-03-27T11:42:17.804Z,9.90
2023-03-27T11:44:48.890Z,9.90
2023-03-27T11:47:45.674Z,9.80
2023-03-27T11:50:33.989Z,9.80
2023-03-27T11:53:43.898Z,9.80
2023-03-27T11:56:33.027Z,9.80
2023-03-27T11:59:51.430Z,9.80
2023-03-27T12:02:49.468Z,9.80
2023-03-27T12:05:35.509Z,9.80
2023-03-27T12:08:14.736Z,9.80
2023-03-27T12:10:48.908Z,9.80
2023-03-27T12:14:09.016Z,9.90
2023-03-27T12:17:14.098Z,9.90
2023-03-27T12:20:31.945Z,9.90
2023-03-27T12:23:26.768Z,10.00
2023-03-27T12:26:49.208Z,10.00
2023-03-27T12:29:53.257Z,10.10
2023-03-27T12:33:07.112Z,10.10
2023-03-27T12:35:43.300Z,10.20
2023-03-27T12:38:28.043Z,10.20
2023-03-27T12:41:21.655Z,10.30
2023-03-27T12:44:06.334Z,10.30
2023-03-27T12:46:43.781Z,10.40
2023-03-27T12:49:58.492Z,10.40
2023-03-27T12:52:32.927Z,10.40
2023-03-27T12:55:35.532Z,10.50
2023-03-27T12:58:06.315Z,10.50
2023-03-27T13:01:00.723Z,10.50
2023-03-27T13:04:12.162Z,10.50
2023-03-27T13:06:52.094Z,10.50
2023-03-27T13:09:44.943Z,10.50
2023-03-27T13:12:36.668Z,10.50
2023-03-27T13:15:22.223Z,10.40
2023-03-27T13:18:29.755Z,10.30
2023-03-27T13:21:08.867Z,10.20
2023-03-27T13:23:57.133Z,10.20
2023-03-27T13:26:52.183Z,10.20
2023-03-27T13:29:26.470Z,10.10
2023-03-27T13:32:05.219Z,10.00
2023-03-27T13:35:10.673Z,10.00
2023-03-27T13:37:58.342Z,10.10
2023-03-27T13:40:49.767Z,9.90
2023-03-27T13:43:26.707Z,9.90
2023-03-27T13:46:19.277Z,9.90
2023-03-27T13:49:22.299Z,9.80
2023-03-27T13:53:06.329Z,9.80
2023-03-27T13:56:41.327Z,9.90
2023-03-27T13:59:52.729Z,9.80
2023-03-27T14:03:22.860Z,10.00
2023-03-27T14:06:50.242Z,9.90
2023-03-27T14:09:38.133Z,9.90
2023-03-27T14:12:26.676Z,10.10
2023-03-27T14:15:42.318Z,9.90
2023-03-27T14:18:48.167Z,9.90
2023-03-27T14:21:31.183Z,10.00
2023-03-27T14:24:12.036Z,10.00
2023-03-27T14:26:46.439Z,10.00
2023-03-27T14:29:21.412Z,10.00
2023-03-27T14:31:52.795Z,10.10
2023-03-27T14:34:51.007Z,10.10
2023-03-27T14:37:42.038Z,10.10
2023-03-27T14:40:39.398Z,10.10
2023-03-27T14:43:13.080Z,10.30
2023-03-27T14:45:43.589Z,10.20
2023-03-27T14:48:22.302Z,10.20
2023-03-27T14:50:56.214Z,10.30
2023-03-27T14:53:29.026Z,10.30
2023-03-27T14:56:28.622Z,10.30
2023-03-27T14:59:34.684Z,10.40
2023-03-27T15:02:21.750Z,10.50
2023-03-27T15:04:56.625Z,10.60
2023-03-27T15:07:28.897Z,10.50
2023-03-27T15:10:24.504Z,10.50
2023-03-27T15:13:12.001Z,10.50
2023-03-27T15:15:51.255Z,10.50
2023-03-27T15:18:28.329Z,10.60
2023-03-27T15:20:59.807Z,10.60
2023-03-27T15:23:37.878Z,10.60
2023-03-27T15:26:12.054Z,10.60
2023-03-27T15:28:45.034Z,10.60
2023-03-27T15:31:15.614Z,10.60
2023-03-27T15:33:54.380Z,10.60
2023-03-27T15:36:28.528Z,10.60
2023-03-27T15:39:00.625Z,10.60
2023-03-27T15:41:51.556Z,10.70
2023-03-27T15:44:22.198Z,10.60
2023-03-27T15:46:57.876Z,10.70
2023-03-27T15:49:32.162Z,10.70
2023-03-27T15:52:02.444Z,10.70
2023-03-27T15:54:34.445Z,10.70
2023-03-27T15:57:09.620Z,10.60
2023-03-27T15:59:52.098Z,10.60
2023-03-27T16:02:25.638Z,10.80
2023-03-27T16:04:57.758Z,10.60
2023-03-27T16:07:30.432Z,10.60
2023-03-27T16:10:02.613Z,10.60
2023-03-27T16:12:35.123Z,10.50
2023-03-27T16:15:08.232Z,10.50
2023-03-27T16:17:45.090Z,10.50
2023-03-27T16:20:37.420Z,10.50
2023-03-27T16:23:06.287Z,10.50
2023-03-27T16:25:35.048Z,10.50
2023-03-27T16:28:03.912Z,10.50
2023-03-27T16:30:35.912Z,10.70
2023-03-27T16:33:10.184Z,10.50
2023-03-27T16:35:40.046Z,10.60
2023-03-27T16:38:08.516Z,10.60
2023-03-27T16:40:36.984Z,10.60
2023-03-27T16:43:05.370Z,10.60
2023-03-27T16:45:33.924Z,10.60
2023-03-27T16:48:02.500Z,10.50
2023-03-27T16:50:35.337Z,10.50
2023-03-27T16:53:05.139Z,10.50
2023-03-27T16:55:33.583Z,10.50
2023-03-27T16:58:03.488Z,10.50
2023-03-27T17:00:31.973Z,10.40
2023-03-27T17:03:00.910Z,10.40
2023-03-27T17:05:34.014Z,10.40
2023-03-27T17:08:05.999Z,10.40
2023-03-27T17:10:35.989Z,10.50
2023-03-27T17:13:07.438Z,10.40
2023-03-27T17:15:38.069Z,10.40
2023-03-27T17:18:09.567Z,10.40
2023-03-27T17:20:38.134Z,10.50
2023-03-27T17:23:08.083Z,10.30
2023-03-27T17:25:36.688Z,10.30
2023-03-27T17:28:07.052Z,10.30
2023-03-27T17:30:40.992Z,10.30
2023-03-27T17:33:14.260Z,10.30
2023-03-27T17:35:43.595Z,10.30
2023-03-27T17:38:13.499Z,10.30
2023-03-27T17:40:43.170Z,10.30
2023-03-27T17:43:12.481Z,10.30
2023-03-27T17:45:42.744Z,10.40
2023-03-27T17:48:11.957Z,10.40
2023-03-27T17:50:40.979Z,10.30
2023-03-27T17:53:09.420Z,10.30
2023-03-27T17:55:40.015Z,10.30
2023-03-27T17:58:10.267Z,10.30
2023-03-27T18:00:39.907Z,10.30
2023-03-27T18:03:09.840Z,10.30
2023-03-27T18:05:41.124Z,10.20
2023-03-27T18:08:12.294Z,10.20
2023-03-27T18:10:48.402Z,10.20
2023-03-27T18:13:18.211Z,10.20
2023-03-27T18:15:55.232Z,10.30
2023-03-27T18:18:24.249Z,10.10
2023-03-27T18:20:52.809Z,10.10
2023-03-27T18:23:21.925Z,10.10
2023-03-27T18:25:51.883Z,10.00
2023-03-27T18:28:20.470Z,10.00
2023-03-27T18:30:48.960Z,10.00
2023-03-27T18:33:17.597Z,10.00
2023-03-27T18:35:46.673Z,10.00
2023-03-27T18:38:15.517Z,10.10
2023-03-27T18:40:44.011Z,10.10
2023-03-27T18:43:13.979Z,9.90
2023-03-27T18:45:42.837Z,9.90
2023-03-27T18:48:11.463Z,9.90
2023-03-27T18:50:40.308Z,9.80
2023-03-27T18:53:08.731Z,9.80
2023-03-27T18:55:37.369Z,9.80
2023-03-27T18:58:06.473Z,9.80
2023-03-27T19:00:36.435Z,9.80
2023-03-27T19:03:05.241Z,9.70
2023-03-27T19:05:33.822Z,9.80
2023-03-27T19:08:02.335Z,9.70
2023-03-27T19:10:30.953Z,9.70
2023-03-27T19:13:19.705Z,9.70
2023-03-27T19:16:28.070Z,9.70
2023-03-27T19:19:16.708Z,9.80
2023-03-27T19:21:55.108Z,9.90
2023-03-27T19:24:49.857Z,9.80
2023-03-27T19:27:23.537Z,9.60
2023-03-27T19:29:53.385Z,9.60
2023-03-27T19:32:24.156Z,9.60
2023-03-27T19:34:52.809Z,9.60
2023-03-27T19:37:21.315Z,9.60
2023-03-27T19:39:50.673Z,9.60
2023-03-27T19:42:19.351Z,9.60
2023-03-27T19:44:47.924Z,9.60
2023-03-27T19:47:16.378Z,9.60
2023-03-27T19:49:46.342Z,9.50
2023-03-27T19:52:19.416Z,9.60
2023-03-27T19:54:48.151Z,9.60
2023-03-27T19:57:16.781Z,9.50
2023-03-27T19:59:45.376Z,9.60
2023-03-27T20:02:14.423Z,9.50
2023-03-27T20:04:42.832Z,9.50
2023-03-27T20:07:12.859Z,9.50
2023-03-27T20:09:41.231Z,9.50
2023-03-27T20:12:11.269Z,9.40
2023-03-27T20:14:39.721Z,9.40
2023-03-27T20:17:18.117Z,9.40
2023-03-27T20:19:55.762Z,9.40
2023-03-27T20:22:26.930Z,9.40
2023-03-27T20:24:55.618Z,9.40
2023-03-27T20:27:24.107Z,9.40
2023-03-27T20:29:52.669Z,9.30
2023-03-27T20:32:21.139Z,9.30
2023-03-27T20:34:50.780Z,9.30
2023-03-27T20:37:19.492Z,9.30
2023-03-27T20:40:01.958Z,9.40
2023-03-27T20:42:30.515Z,9.20
2023-03-27T20:44:59.743Z,9.20
2023-03-27T20:47:38.921Z,9.20
2023-03-27T20:50:08.638Z,9.20
2023-03-27T20:52:37.059Z,9.20
2023-03-27T20:55:08.056Z,9.20
2023-03-27T20:57:36.758Z,9.10
2023-03-27T21:00:07.873Z,9.20
2023-03-27T21:02:36.405Z,9.10
2023-03-27T21:05:05.430Z,9.20
2023-03-27T21:07:34.179Z,9.10
2023-03-27T21:10:02.638Z,9.10
2023-03-27T21:12:32.527Z,9.00
2023-03-27T21:15:01.209Z,9.00
2023-03-27T21:17:29.556Z,9.00
2023-03-27T21:19:57.971Z,9.00
2023-03-27T21:22:26.412Z,9.00
2023-03-27T21:24:54.794Z,8.90
2023-03-27T21:27:23.100Z,8.90
2023-03-27T21:29:56.387Z,9.00
2023-03-27T21:32:24.856Z,8.90
2023-03-27T21:34:53.200Z,9.00
2023-03-27T21:37:21.571Z,9.00
2023-03-27T21:39:49.915Z,8.80
2023-03-27T21:42:21.718Z,8.80
2023-03-27T21:44:54.417Z,8.80
2023-03-27T21:47:37.343Z,8.90
2023-03-27T21:50:13.437Z,8.70
2023-03-27T21:52:41.844Z,8.70
2023-03-27T21:55:10.958Z,8.80
2023-03-27T21:57:39.347Z,8.70
2023-03-27T22:00:09.968Z,8.60
2023-03-27T22:02:42.914Z,8.60
2023-03-27T22:05:11.589Z,8.60
2023-03-27T22:07:42.570Z,8.70
2023-03-27T22:10:12.303Z,8.60
2023-03-27T22:12:41.232Z,8.60
2023-03-27T22:15:11.258Z,8.70
2023-03-27T22:17:41.156Z,8.50
2023-03-27T22:20:10.945Z,8.60
2023-03-27T22:22:39.461Z,8.50
2023-03-27T22:25:09.273Z,8.50
2023-03-27T22:27:38.050Z,8.40
2023-03-27T22:30:08.240Z,8.40
2023-03-27T22:32:36.822Z,8.40
2023-03-27T22:35:07.592Z,8.40
2023-03-27T22:37:37.443Z,8.40
2023-03-27T22:40:07.883Z,8.40
2023-03-27T22:42:37.627Z,8.30
2023-03-27T22:45:06.826Z,8.30
2023-03-27T22:47:35.947Z,8.30
2023-03-27T22:50:06.470Z,8.40
2023-03-27T22:52:34.902Z,8.30
2023-03-27T22:55:03.363Z,8.20
2023-03-27T22:57:31.811Z,8.40
2023-03-27T23:00:00.300Z,8.20
2023-03-27T23:02:28.924Z,8.20
2023-03-27T23:04:57.405Z,8.20
2023-03-27T23:07:27.203Z,8.20
2023-03-27T23:09:56.075Z,8.10
2023-03-27T23:12:24.479Z,8.10
2023-03-27T23:14:52.995Z,8.20
2023-03-27T23:17:21.487Z,8.20
2023-03-27T23:19:50.012Z,8.10
2023-03-27T23:22:18.393Z,8.10
2023-03-27T23:24:48.174Z,8.10
2023-03-27T23:27:16.626Z,8.00
2023-03-27T23:29:45.892Z,8.00
2023-03-27T23:32:14.290Z,8.10
2023-03-27T23:34:42.602Z,7.90
2023-03-27T23:37:10.993Z,8.00
2023-03-27T23:39:39.343Z,8.00
2023-03-27T23:42:09.154Z,7.90
2023-03-27T23:44:37.556Z,7.90
2023-03-27T23:47:06.162Z,7.90
2023-03-27T23:49:34.518Z,7.90
2023-03-27T23:52:02.901Z,8.00
2023-03-27T23:54:31.416Z,7.90
2023-03-27T23:56:59.888Z,7.90
2023-03-27T23:59:37.828Z,7.80
